sensor_id;sensor_type;location;lat;lon;timestamp;P1;durP1;ratioP1;P2;durP2;ratioP2
29958;SDS011;16815;51.100;6.516;2023-12-04T00:01:58;16.33;;;11.63;;
29958;SDS011;16815;51.100;6.516;2023-12-04T00:04:24;19.60;;;13.03;;
29958;SDS011;16815;51.100;6.516;2023-12-04T00:06:50;18.27;;;12.73;;
29958;SDS011;16815;51.100;6.516;2023-12-04T00:09:16;20.53;;;12.90;;
29958;SDS011;16815;51.100;6.516;2023-12-04T00:11:42;18.90;;;12.63;;
29958;SDS011;16815;51.100;6.516;2023-12-04T00:14:07;19.30;;;12.23;;
29958;SDS011;16815;51.100;6.516;2023-12-04T00:16:34;18.20;;;12.07;;
29958;SDS011;16815;51.100;6.516;2023-12-04T00:19:03;18.80;;;12.00;;
29958;SDS011;16815;51.100;6.516;2023-12-04T00:21:28;16.83;;;12.13;;
29958;SDS011;16815;51.100;6.516;2023-12-04T00:23:54;17.70;;;12.10;;
29958;SDS011;16815;51.100;6.516;2023-12-04T00:26:20;20.50;;;12.47;;
29958;SDS011;16815;51.100;6.516;2023-12-04T00:28:46;17.67;;;12.17;;
29958;SDS011;16815;51.100;6.516;2023-12-04T00:31:12;15.27;;;12.10;;
29958;SDS011;16815;51.100;6.516;2023-12-04T00:33:38;18.07;;;12.70;;
29958;SDS011;16815;51.100;6.516;2023-12-04T00:36:04;17.87;;;11.90;;
29958;SDS011;16815;51.100;6.516;2023-12-04T00:38:30;17.43;;;12.20;;
29958;SDS011;16815;51.100;6.516;2023-12-04T00:40:56;16.00;;;11.43;;
29958;SDS011;16815;51.100;6.516;2023-12-04T00:43:22;16.13;;;11.70;;
29958;SDS011;16815;51.100;6.516;2023-12-04T00:45:48;16.30;;;11.73;;
29958;SDS011;16815;51.100;6.516;2023-12-04T00:48:14;17.43;;;11.67;;
29958;SDS011;16815;51.100;6.516;2023-12-04T00:50:40;17.40;;;11.80;;
29958;SDS011;16815;51.100;6.516;2023-12-04T00:53:06;16.30;;;11.17;;
29958;SDS011;16815;51.100;6.516;2023-12-04T00:55:32;15.23;;;11.60;;
29958;SDS011;16815;51.100;6.516;2023-12-04T00:57:58;15.63;;;10.93;;
29958;SDS011;16815;51.100;6.516;2023-12-04T01:00:24;14.57;;;10.80;;
29958;SDS011;16815;51.100;6.516;2023-12-04T01:02:50;17.77;;;11.67;;
29958;SDS011;16815;51.100;6.516;2023-12-04T01:05:16;16.30;;;11.50;;
29958;SDS011;16815;51.100;6.516;2023-12-04T01:07:42;16.83;;;12.30;;
29958;SDS011;16815;51.100;6.516;2023-12-04T01:10:09;14.77;;;11.03;;
29958;SDS011;16815;51.100;6.516;2023-12-04T01:12:35;16.63;;;10.93;;
29958;SDS011;16815;51.100;6.516;2023-12-04T01:15:01;15.27;;;10.90;;
29958;SDS011;16815;51.100;6.516;2023-12-04T01:17:28;17.20;;;11.77;;
29958;SDS011;16815;51.100;6.516;2023-12-04T01:19:54;15.37;;;11.33;;
29958;SDS011;16815;51.100;6.516;2023-12-04T01:22:20;17.13;;;11.60;;
29958;SDS011;16815;51.100;6.516;2023-12-04T01:24:46;14.90;;;10.70;;
29958;SDS011;16815;51.100;6.516;2023-12-04T01:27:11;14.43;;;10.20;;
29958;SDS011;16815;51.100;6.516;2023-12-04T01:29:37;16.07;;;10.87;;
29958;SDS011;16815;51.100;6.516;2023-12-04T01:32:03;13.87;;;10.77;;
29958;SDS011;16815;51.100;6.516;2023-12-04T01:34:29;13.43;;;10.37;;
29958;SDS011;16815;51.100;6.516;2023-12-04T01:36:55;15.40;;;10.43;;
29958;SDS011;16815;51.100;6.516;2023-12-04T01:39:21;16.13;;;10.90;;
29958;SDS011;16815;51.100;6.516;2023-12-04T01:41:47;16.20;;;10.80;;
29958;SDS011;16815;51.100;6.516;2023-12-04T01:44:13;15.20;;;10.10;;
29958;SDS011;16815;51.100;6.516;2023-12-04T01:46:39;15.57;;;10.63;;
29958;SDS011;16815;51.100;6.516;2023-12-04T01:49:05;16.23;;;11.13;;
29958;SDS011;16815;51.100;6.516;2023-12-04T01:51:31;15.30;;;10.70;;
29958;SDS011;16815;51.100;6.516;2023-12-04T01:53:58;14.40;;;10.10;;
29958;SDS011;16815;51.100;6.516;2023-12-04T01:56:25;13.20;;;10.53;;
29958;SDS011;16815;51.100;6.516;2023-12-04T01:58:51;15.97;;;10.97;;
29958;SDS011;16815;51.100;6.516;2023-12-04T02:01:17;14.47;;;10.47;;
29958;SDS011;16815;51.100;6.516;2023-12-04T02:03:44;15.37;;;11.00;;
29958;SDS011;16815;51.100;6.516;2023-12-04T02:06:09;15.23;;;11.30;;
29958;SDS011;16815;51.100;6.516;2023-12-04T02:08:37;13.43;;;10.27;;
29958;SDS011;16815;51.100;6.516;2023-12-04T02:11:05;14.03;;;9.90;;
29958;SDS011;16815;51.100;6.516;2023-12-04T02:13:31;14.07;;;10.00;;
29958;SDS011;16815;51.100;6.516;2023-12-04T02:15:58;13.00;;;10.00;;
29958;SDS011;16815;51.100;6.516;2023-12-04T02:18:26;14.30;;;10.43;;
29958;SDS011;16815;51.100;6.516;2023-12-04T02:20:52;13.87;;;10.60;;
29958;SDS011;16815;51.100;6.516;2023-12-04T02:23:18;14.47;;;10.03;;
29958;SDS011;16815;51.100;6.516;2023-12-04T02:25:44;14.20;;;10.57;;
29958;SDS011;16815;51.100;6.516;2023-12-04T02:28:11;14.07;;;10.60;;
29958;SDS011;16815;51.100;6.516;2023-12-04T02:30:38;14.93;;;10.33;;
29958;SDS011;16815;51.100;6.516;2023-12-04T02:33:07;15.83;;;11.27;;
29958;SDS011;16815;51.100;6.516;2023-12-04T02:35:34;15.03;;;10.60;;
29958;SDS011;16815;51.100;6.516;2023-12-04T02:38:01;13.63;;;10.50;;
29958;SDS011;16815;51.100;6.516;2023-12-04T02:40:27;13.90;;;10.70;;
29958;SDS011;16815;51.100;6.516;2023-12-04T02:42:53;13.80;;;10.57;;
29958;SDS011;16815;51.100;6.516;2023-12-04T02:45:19;14.80;;;10.03;;
29958;SDS011;16815;51.100;6.516;2023-12-04T02:47:45;13.00;;;10.63;;
29958;SDS011;16815;51.100;6.516;2023-12-04T02:50:11;13.27;;;9.97;;
29958;SDS011;16815;51.100;6.516;2023-12-04T02:52:37;13.77;;;10.30;;
29958;SDS011;16815;51.100;6.516;2023-12-04T02:55:03;14.23;;;9.90;;
29958;SDS011;16815;51.100;6.516;2023-12-04T02:57:29;12.30;;;9.70;;
29958;SDS011;16815;51.100;6.516;2023-12-04T02:59:55;14.07;;;10.53;;
29958;SDS011;16815;51.100;6.516;2023-12-04T03:02:21;13.60;;;10.07;;
29958;SDS011;16815;51.100;6.516;2023-12-04T03:04:47;14.50;;;10.40;;
29958;SDS011;16815;51.100;6.516;2023-12-04T03:07:13;12.73;;;9.97;;
29958;SDS011;16815;51.100;6.516;2023-12-04T03:09:39;12.47;;;9.83;;
29958;SDS011;16815;51.100;6.516;2023-12-04T03:12:05;14.57;;;10.60;;
29958;SDS011;16815;51.100;6.516;2023-12-04T03:14:31;11.60;;;9.60;;
29958;SDS011;16815;51.100;6.516;2023-12-04T03:16:57;13.13;;;9.33;;
29958;SDS011;16815;51.100;6.516;2023-12-04T03:19:23;11.63;;;9.07;;
29958;SDS011;16815;51.100;6.516;2023-12-04T03:21:49;13.10;;;10.10;;
29958;SDS011;16815;51.100;6.516;2023-12-04T03:24:15;14.43;;;10.03;;
29958;SDS011;16815;51.100;6.516;2023-12-04T03:26:41;15.83;;;11.10;;
29958;SDS011;16815;51.100;6.516;2023-12-04T03:29:07;16.60;;;10.57;;
29958;SDS011;16815;51.100;6.516;2023-12-04T03:31:33;12.63;;;9.33;;
29958;SDS011;16815;51.100;6.516;2023-12-04T03:33:59;14.40;;;10.33;;
29958;SDS011;16815;51.100;6.516;2023-12-04T03:36:25;11.27;;;9.50;;
29958;SDS011;16815;51.100;6.516;2023-12-04T03:38:51;11.90;;;9.40;;
29958;SDS011;16815;51.100;6.516;2023-12-04T03:41:17;12.57;;;9.37;;
29958;SDS011;16815;51.100;6.516;2023-12-04T03:43:44;12.63;;;9.57;;
29958;SDS011;16815;51.100;6.516;2023-12-04T03:46:10;11.73;;;9.63;;
29958;SDS011;16815;51.100;6.516;2023-12-04T03:48:36;16.13;;;9.47;;
29958;SDS011;16815;51.100;6.516;2023-12-04T03:51:02;14.03;;;9.30;;
29958;SDS011;16815;51.100;6.516;2023-12-04T03:53:28;13.10;;;9.80;;
29958;SDS011;16815;51.100;6.516;2023-12-04T03:55:54;14.67;;;9.90;;
29958;SDS011;16815;51.100;6.516;2023-12-04T03:58:20;12.70;;;8.97;;
29958;SDS011;16815;51.100;6.516;2023-12-04T04:00:45;12.30;;;9.60;;
29958;SDS011;16815;51.100;6.516;2023-12-04T04:03:11;12.70;;;8.77;;
29958;SDS011;16815;51.100;6.516;2023-12-04T04:05:37;13.50;;;9.67;;
29958;SDS011;16815;51.100;6.516;2023-12-04T04:08:03;14.13;;;10.00;;
29958;SDS011;16815;51.100;6.516;2023-12-04T04:10:32;12.77;;;9.27;;
29958;SDS011;16815;51.100;6.516;2023-12-04T04:12:58;12.83;;;9.70;;
29958;SDS011;16815;51.100;6.516;2023-12-04T04:15:24;14.83;;;9.20;;
29958;SDS011;16815;51.100;6.516;2023-12-04T04:17:50;11.30;;;8.87;;
29958;SDS011;16815;51.100;6.516;2023-12-04T04:20:16;13.23;;;9.60;;
29958;SDS011;16815;51.100;6.516;2023-12-04T04:22:42;13.23;;;10.20;;
29958;SDS011;16815;51.100;6.516;2023-12-04T04:25:09;13.27;;;9.63;;
29958;SDS011;16815;51.100;6.516;2023-12-04T04:27:35;14.50;;;10.00;;
29958;SDS011;16815;51.100;6.516;2023-12-04T04:30:02;14.40;;;10.00;;
29958;SDS011;16815;51.100;6.516;2023-12-04T04:32:28;14.03;;;9.67;;
29958;SDS011;16815;51.100;6.516;2023-12-04T04:34:54;12.77;;;8.87;;
29958;SDS011;16815;51.100;6.516;2023-12-04T04:37:20;12.17;;;9.10;;
29958;SDS011;16815;51.100;6.516;2023-12-04T04:39:46;12.43;;;9.47;;
29958;SDS011;16815;51.100;6.516;2023-12-04T04:42:12;14.77;;;9.57;;
29958;SDS011;16815;51.100;6.516;2023-12-04T04:44:38;15.03;;;10.47;;
29958;SDS011;16815;51.100;6.516;2023-12-04T04:47:04;14.47;;;9.47;;
29958;SDS011;16815;51.100;6.516;2023-12-04T04:49:30;12.10;;;8.93;;
29958;SDS011;16815;51.100;6.516;2023-12-04T04:51:56;18.07;;;10.40;;
29958;SDS011;16815;51.100;6.516;2023-12-04T04:54:22;13.53;;;9.63;;
29958;SDS011;16815;51.100;6.516;2023-12-04T04:56:48;12.77;;;9.33;;
29958;SDS011;16815;51.100;6.516;2023-12-04T04:59:13;14.30;;;10.03;;
29958;SDS011;16815;51.100;6.516;2023-12-04T05:01:39;12.97;;;9.27;;
29958;SDS011;16815;51.100;6.516;2023-12-04T05:04:06;13.93;;;10.20;;
29958;SDS011;16815;51.100;6.516;2023-12-04T05:06:32;16.03;;;10.20;;
29958;SDS011;16815;51.100;6.516;2023-12-04T05:08:58;14.73;;;10.00;;
29958;SDS011;16815;51.100;6.516;2023-12-04T05:11:24;12.90;;;9.70;;
29958;SDS011;16815;51.100;6.516;2023-12-04T05:13:49;13.77;;;9.83;;
29958;SDS011;16815;51.100;6.516;2023-12-04T05:16:15;12.40;;;9.70;;
29958;SDS011;16815;51.100;6.516;2023-12-04T05:18:41;15.17;;;10.27;;
29958;SDS011;16815;51.100;6.516;2023-12-04T05:21:08;12.73;;;9.80;;
29958;SDS011;16815;51.100;6.516;2023-12-04T05:23:34;13.80;;;10.27;;
29958;SDS011;16815;51.100;6.516;2023-12-04T05:26:00;12.67;;;9.67;;
29958;SDS011;16815;51.100;6.516;2023-12-04T05:28:26;13.80;;;10.10;;
29958;SDS011;16815;51.100;6.516;2023-12-04T05:30:52;12.07;;;9.93;;
29958;SDS011;16815;51.100;6.516;2023-12-04T05:33:18;11.80;;;9.30;;
29958;SDS011;16815;51.100;6.516;2023-12-04T05:35:44;15.27;;;9.80;;
29958;SDS011;16815;51.100;6.516;2023-12-04T05:38:10;14.90;;;10.27;;
29958;SDS011;16815;51.100;6.516;2023-12-04T05:40:36;13.17;;;9.70;;
29958;SDS011;16815;51.100;6.516;2023-12-04T05:43:02;12.40;;;9.93;;
29958;SDS011;16815;51.100;6.516;2023-12-04T05:45:28;12.73;;;9.90;;
29958;SDS011;16815;51.100;6.516;2023-12-04T05:47:54;15.20;;;11.00;;
29958;SDS011;16815;51.100;6.516;2023-12-04T05:50:20;15.00;;;9.27;;
29958;SDS011;16815;51.100;6.516;2023-12-04T05:52:46;14.70;;;10.80;;
29958;SDS011;16815;51.100;6.516;2023-12-04T05:55:12;11.47;;;9.40;;
29958;SDS011;16815;51.100;6.516;2023-12-04T05:57:38;14.43;;;10.47;;
29958;SDS011;16815;51.100;6.516;2023-12-04T06:00:05;14.07;;;9.83;;
29958;SDS011;16815;51.100;6.516;2023-12-04T06:02:37;14.43;;;10.30;;
29958;SDS011;16815;51.100;6.516;2023-12-04T06:05:03;13.80;;;9.90;;
29958;SDS011;16815;51.100;6.516;2023-12-04T06:07:29;14.30;;;10.60;;
29958;SDS011;16815;51.100;6.516;2023-12-04T06:09:55;14.03;;;9.47;;
29958;SDS011;16815;51.100;6.516;2023-12-04T06:12:21;14.70;;;10.43;;
29958;SDS011;16815;51.100;6.516;2023-12-04T06:14:47;13.87;;;10.27;;
29958;SDS011;16815;51.100;6.516;2023-12-04T06:17:13;15.07;;;10.23;;
29958;SDS011;16815;51.100;6.516;2023-12-04T06:19:39;13.37;;;10.50;;
29958;SDS011;16815;51.100;6.516;2023-12-04T06:22:05;17.03;;;11.87;;
29958;SDS011;16815;51.100;6.516;2023-12-04T06:24:32;14.27;;;10.77;;
29958;SDS011;16815;51.100;6.516;2023-12-04T06:26:58;15.47;;;10.43;;
29958;SDS011;16815;51.100;6.516;2023-12-04T06:29:24;13.57;;;10.80;;
29958;SDS011;16815;51.100;6.516;2023-12-04T06:31:50;14.47;;;10.30;;
29958;SDS011;16815;51.100;6.516;2023-12-04T06:34:16;13.00;;;10.23;;
29958;SDS011;16815;51.100;6.516;2023-12-04T06:36:43;13.87;;;10.60;;
29958;SDS011;16815;51.100;6.516;2023-12-04T06:39:10;14.70;;;10.80;;
29958;SDS011;16815;51.100;6.516;2023-12-04T06:41:39;14.53;;;9.67;;
29958;SDS011;16815;51.100;6.516;2023-12-04T06:44:05;15.50;;;11.30;;
29958;SDS011;16815;51.100;6.516;2023-12-04T06:46:32;14.30;;;10.60;;
29958;SDS011;16815;51.100;6.516;2023-12-04T06:49:00;14.20;;;10.67;;
29958;SDS011;16815;51.100;6.516;2023-12-04T06:51:26;14.40;;;10.50;;
29958;SDS011;16815;51.100;6.516;2023-12-04T06:53:52;14.73;;;11.00;;
29958;SDS011;16815;51.100;6.516;2023-12-04T06:56:18;12.57;;;9.93;;
29958;SDS011;16815;51.100;6.516;2023-12-04T06:58:43;13.43;;;10.50;;
29958;SDS011;16815;51.100;6.516;2023-12-04T07:01:09;14.77;;;10.70;;
29958;SDS011;16815;51.100;6.516;2023-12-04T07:03:35;13.57;;;10.63;;
29958;SDS011;16815;51.100;6.516;2023-12-04T07:06:01;11.50;;;9.67;;
29958;SDS011;16815;51.100;6.516;2023-12-04T07:08:27;14.80;;;10.70;;
29958;SDS011;16815;51.100;6.516;2023-12-04T07:10:53;14.23;;;9.93;;
29958;SDS011;16815;51.100;6.516;2023-12-04T07:13:19;12.73;;;10.43;;
29958;SDS011;16815;51.100;6.516;2023-12-04T07:15:45;13.37;;;10.97;;
29958;SDS011;16815;51.100;6.516;2023-12-04T07:18:11;12.37;;;10.10;;
29958;SDS011;16815;51.100;6.516;2023-12-04T07:20:37;12.83;;;10.50;;
29958;SDS011;16815;51.100;6.516;2023-12-04T07:23:03;12.80;;;10.70;;
29958;SDS011;16815;51.100;6.516;2023-12-04T07:25:29;15.43;;;11.40;;
29958;SDS011;16815;51.100;6.516;2023-12-04T07:27:55;13.00;;;10.10;;
29958;SDS011;16815;51.100;6.516;2023-12-04T07:30:22;13.10;;;10.03;;
29958;SDS011;16815;51.100;6.516;2023-12-04T07:32:49;16.33;;;11.80;;
29958;SDS011;16815;51.100;6.516;2023-12-04T07:35:16;19.70;;;12.07;;
29958;SDS011;16815;51.100;6.516;2023-12-04T07:37:43;12.93;;;10.17;;
29958;SDS011;16815;51.100;6.516;2023-12-04T07:40:09;13.03;;;10.80;;
29958;SDS011;16815;51.100;6.516;2023-12-04T07:42:35;14.30;;;10.80;;
29958;SDS011;16815;51.100;6.516;2023-12-04T07:45:01;16.83;;;11.37;;
29958;SDS011;16815;51.100;6.516;2023-12-04T07:47:27;14.10;;;11.07;;
29958;SDS011;16815;51.100;6.516;2023-12-04T07:49:53;13.93;;;10.60;;
29958;SDS011;16815;51.100;6.516;2023-12-04T07:52:19;15.80;;;10.80;;
29958;SDS011;16815;51.100;6.516;2023-12-04T07:54:45;14.27;;;10.60;;
29958;SDS011;16815;51.100;6.516;2023-12-04T07:57:11;16.17;;;11.60;;
29958;SDS011;16815;51.100;6.516;2023-12-04T07:59:37;16.87;;;11.50;;
29958;SDS011;16815;51.100;6.516;2023-12-04T08:02:03;15.23;;;11.10;;
29958;SDS011;16815;51.100;6.516;2023-12-04T08:04:29;15.60;;;11.20;;
29958;SDS011;16815;51.100;6.516;2023-12-04T08:06:55;18.27;;;11.60;;
29958;SDS011;16815;51.100;6.516;2023-12-04T08:09:21;15.13;;;10.83;;
29958;SDS011;16815;51.100;6.516;2023-12-04T08:11:47;14.30;;;10.77;;
29958;SDS011;16815;51.100;6.516;2023-12-04T08:14:13;13.10;;;10.53;;
29958;SDS011;16815;51.100;6.516;2023-12-04T08:16:50;12.17;;;10.40;;
29958;SDS011;16815;51.100;6.516;2023-12-04T08:19:16;15.47;;;10.97;;
29958;SDS011;16815;51.100;6.516;2023-12-04T08:21:42;15.03;;;11.20;;
29958;SDS011;16815;51.100;6.516;2023-12-04T08:24:08;14.87;;;11.07;;
29958;SDS011;16815;51.100;6.516;2023-12-04T08:26:34;14.47;;;10.67;;
29958;SDS011;16815;51.100;6.516;2023-12-04T08:29:00;14.57;;;11.13;;
29958;SDS011;16815;51.100;6.516;2023-12-04T08:31:25;15.67;;;11.37;;
29958;SDS011;16815;51.100;6.516;2023-12-04T08:33:51;15.40;;;11.20;;
29958;SDS011;16815;51.100;6.516;2023-12-04T08:36:17;17.17;;;12.07;;
29958;SDS011;16815;51.100;6.516;2023-12-04T08:38:43;14.43;;;10.90;;
29958;SDS011;16815;51.100;6.516;2023-12-04T08:41:09;13.83;;;11.20;;
29958;SDS011;16815;51.100;6.516;2023-12-04T08:43:35;14.83;;;11.20;;
29958;SDS011;16815;51.100;6.516;2023-12-04T08:46:01;14.20;;;11.07;;
29958;SDS011;16815;51.100;6.516;2023-12-04T08:48:27;15.43;;;11.43;;
29958;SDS011;16815;51.100;6.516;2023-12-04T08:50:53;16.07;;;10.77;;
29958;SDS011;16815;51.100;6.516;2023-12-04T08:53:19;15.43;;;10.87;;
29958;SDS011;16815;51.100;6.516;2023-12-04T08:55:45;15.07;;;10.80;;
29958;SDS011;16815;51.100;6.516;2023-12-04T08:58:12;11.77;;;9.87;;
29958;SDS011;16815;51.100;6.516;2023-12-04T09:00:38;12.93;;;10.77;;
29958;SDS011;16815;51.100;6.516;2023-12-04T09:03:07;15.33;;;11.53;;
29958;SDS011;16815;51.100;6.516;2023-12-04T09:05:33;13.93;;;10.27;;
29958;SDS011;16815;51.100;6.516;2023-12-04T09:07:59;16.23;;;10.33;;
29958;SDS011;16815;51.100;6.516;2023-12-04T09:10:25;15.37;;;11.20;;
29958;SDS011;16815;51.100;6.516;2023-12-04T09:12:51;14.93;;;10.47;;
29958;SDS011;16815;51.100;6.516;2023-12-04T09:15:17;13.77;;;11.03;;
29958;SDS011;16815;51.100;6.516;2023-12-04T09:17:43;15.30;;;11.37;;
29958;SDS011;16815;51.100;6.516;2023-12-04T09:20:09;14.03;;;10.93;;
29958;SDS011;16815;51.100;6.516;2023-12-04T09:22:36;13.43;;;10.50;;
29958;SDS011;16815;51.100;6.516;2023-12-04T09:25:05;14.40;;;10.87;;
29958;SDS011;16815;51.100;6.516;2023-12-04T09:27:31;15.60;;;10.43;;
29958;SDS011;16815;51.100;6.516;2023-12-04T09:29:58;16.63;;;10.47;;
29958;SDS011;16815;51.100;6.516;2023-12-04T09:32:23;15.43;;;10.73;;
29958;SDS011;16815;51.100;6.516;2023-12-04T09:34:49;12.17;;;10.27;;
29958;SDS011;16815;51.100;6.516;2023-12-04T09:37:15;13.80;;;11.00;;
29958;SDS011;16815;51.100;6.516;2023-12-04T09:39:41;14.30;;;10.13;;
29958;SDS011;16815;51.100;6.516;2023-12-04T09:42:07;13.43;;;11.27;;
29958;SDS011;16815;51.100;6.516;2023-12-04T09:44:34;16.97;;;10.70;;
29958;SDS011;16815;51.100;6.516;2023-12-04T09:47:01;14.97;;;11.07;;
29958;SDS011;16815;51.100;6.516;2023-12-04T09:49:28;15.07;;;10.47;;
29958;SDS011;16815;51.100;6.516;2023-12-04T09:51:55;13.03;;;10.20;;
29958;SDS011;16815;51.100;6.516;2023-12-04T09:54:23;14.43;;;10.63;;
29958;SDS011;16815;51.100;6.516;2023-12-04T09:56:49;14.13;;;10.33;;
29958;SDS011;16815;51.100;6.516;2023-12-04T09:59:15;15.07;;;10.87;;
29958;SDS011;16815;51.100;6.516;2023-12-04T10:01:43;15.87;;;10.43;;
29958;SDS011;16815;51.100;6.516;2023-12-04T10:04:09;14.10;;;11.10;;
29958;SDS011;16815;51.100;6.516;2023-12-04T10:06:36;13.53;;;10.67;;
29958;SDS011;16815;51.100;6.516;2023-12-04T10:09:03;14.33;;;10.23;;
29958;SDS011;16815;51.100;6.516;2023-12-04T10:11:29;15.50;;;11.00;;
29958;SDS011;16815;51.100;6.516;2023-12-04T10:13:55;12.43;;;10.13;;
29958;SDS011;16815;51.100;6.516;2023-12-04T10:16:31;14.67;;;10.57;;
29958;SDS011;16815;51.100;6.516;2023-12-04T10:19:04;13.10;;;9.87;;
29958;SDS011;16815;51.100;6.516;2023-12-04T10:21:39;18.97;;;10.20;;
29958;SDS011;16815;51.100;6.516;2023-12-04T10:24:05;13.40;;;9.90;;
29958;SDS011;16815;51.100;6.516;2023-12-04T10:26:31;17.30;;;10.57;;
29958;SDS011;16815;51.100;6.516;2023-12-04T10:29:03;12.43;;;10.00;;
29958;SDS011;16815;51.100;6.516;2023-12-04T10:31:32;13.27;;;10.40;;
29958;SDS011;16815;51.100;6.516;2023-12-04T10:33:59;12.30;;;9.50;;
29958;SDS011;16815;51.100;6.516;2023-12-04T10:36:25;13.30;;;10.40;;
29958;SDS011;16815;51.100;6.516;2023-12-04T10:39:00;12.77;;;9.53;;
29958;SDS011;16815;51.100;6.516;2023-12-04T10:41:29;13.37;;;9.50;;
29958;SDS011;16815;51.100;6.516;2023-12-04T10:43:55;15.23;;;10.23;;
29958;SDS011;16815;51.100;6.516;2023-12-04T10:46:22;18.80;;;10.90;;
29958;SDS011;16815;51.100;6.516;2023-12-04T10:48:49;12.80;;;9.33;;
29958;SDS011;16815;51.100;6.516;2023-12-04T10:51:15;13.27;;;9.33;;
29958;SDS011;16815;51.100;6.516;2023-12-04T10:53:42;14.07;;;9.80;;
29958;SDS011;16815;51.100;6.516;2023-12-04T10:56:10;12.87;;;10.00;;
29958;SDS011;16815;51.100;6.516;2023-12-04T10:58:36;12.57;;;9.40;;
29958;SDS011;16815;51.100;6.516;2023-12-04T11:01:04;12.17;;;9.57;;
29958;SDS011;16815;51.100;6.516;2023-12-04T11:03:37;12.97;;;9.77;;
29958;SDS011;16815;51.100;6.516;2023-12-04T11:06:06;12.30;;;9.10;;
29958;SDS011;16815;51.100;6.516;2023-12-04T11:08:34;13.00;;;9.63;;
29958;SDS011;16815;51.100;6.516;2023-12-04T11:11:02;18.63;;;11.00;;
29958;SDS011;16815;51.100;6.516;2023-12-04T11:13:42;11.97;;;9.10;;
29958;SDS011;16815;51.100;6.516;2023-12-04T11:16:22;11.73;;;8.90;;
29958;SDS011;16815;51.100;6.516;2023-12-04T11:18:55;15.07;;;9.17;;
29958;SDS011;16815;51.100;6.516;2023-12-04T11:21:22;14.17;;;9.30;;
29958;SDS011;16815;51.100;6.516;2023-12-04T11:23:49;14.80;;;9.50;;
29958;SDS011;16815;51.100;6.516;2023-12-04T11:26:15;13.53;;;8.80;;
29958;SDS011;16815;51.100;6.516;2023-12-04T11:28:42;10.90;;;8.33;;
29958;SDS011;16815;51.100;6.516;2023-12-04T11:31:08;11.90;;;8.97;;
29958;SDS011;16815;51.100;6.516;2023-12-04T11:33:35;10.60;;;8.70;;
29958;SDS011;16815;51.100;6.516;2023-12-04T11:36:08;11.23;;;9.47;;
29958;SDS011;16815;51.100;6.516;2023-12-04T11:38:35;10.90;;;9.00;;
29958;SDS011;16815;51.100;6.516;2023-12-04T11:41:11;10.83;;;8.87;;
29958;SDS011;16815;51.100;6.516;2023-12-04T11:43:39;15.30;;;9.17;;
29958;SDS011;16815;51.100;6.516;2023-12-04T11:46:08;10.50;;;8.80;;
29958;SDS011;16815;51.100;6.516;2023-12-04T11:48:36;11.50;;;9.00;;
29958;SDS011;16815;51.100;6.516;2023-12-04T11:51:01;13.03;;;9.87;;
29958;SDS011;16815;51.100;6.516;2023-12-04T11:53:27;13.33;;;9.83;;
29958;SDS011;16815;51.100;6.516;2023-12-04T11:55:55;14.63;;;10.43;;
29958;SDS011;16815;51.100;6.516;2023-12-04T11:58:24;14.90;;;10.07;;
29958;SDS011;16815;51.100;6.516;2023-12-04T12:00:50;15.90;;;9.90;;
29958;SDS011;16815;51.100;6.516;2023-12-04T12:03:17;14.33;;;10.53;;
29958;SDS011;16815;51.100;6.516;2023-12-04T12:05:43;13.87;;;10.90;;
29958;SDS011;16815;51.100;6.516;2023-12-04T12:08:09;14.00;;;10.70;;
29958;SDS011;16815;51.100;6.516;2023-12-04T12:10:36;16.27;;;10.53;;
29958;SDS011;16815;51.100;6.516;2023-12-04T12:13:02;11.90;;;9.73;;
29958;SDS011;16815;51.100;6.516;2023-12-04T12:15:28;13.30;;;10.33;;
29958;SDS011;16815;51.100;6.516;2023-12-04T12:17:54;17.13;;;10.03;;
29958;SDS011;16815;51.100;6.516;2023-12-04T12:20:20;13.80;;;10.50;;
29958;SDS011;16815;51.100;6.516;2023-12-04T12:22:47;12.27;;;9.47;;
29958;SDS011;16815;51.100;6.516;2023-12-04T12:25:13;15.37;;;10.70;;
29958;SDS011;16815;51.100;6.516;2023-12-04T12:27:39;14.73;;;10.67;;
29958;SDS011;16815;51.100;6.516;2023-12-04T12:30:06;17.67;;;10.30;;
29958;SDS011;16815;51.100;6.516;2023-12-04T12:32:33;16.13;;;10.70;;
29958;SDS011;16815;51.100;6.516;2023-12-04T12:34:59;11.90;;;9.53;;
29958;SDS011;16815;51.100;6.516;2023-12-04T12:37:25;14.27;;;9.20;;
29958;SDS011;16815;51.100;6.516;2023-12-04T12:39:51;15.27;;;9.20;;
29958;SDS011;16815;51.100;6.516;2023-12-04T12:42:20;13.10;;;10.13;;
29958;SDS011;16815;51.100;6.516;2023-12-04T12:44:47;14.03;;;10.40;;
29958;SDS011;16815;51.100;6.516;2023-12-04T12:47:14;11.77;;;9.70;;
29958;SDS011;16815;51.100;6.516;2023-12-04T12:49:40;13.90;;;10.00;;
29958;SDS011;16815;51.100;6.516;2023-12-04T12:52:06;12.90;;;9.70;;
29958;SDS011;16815;51.100;6.516;2023-12-04T12:54:38;13.73;;;10.50;;
29958;SDS011;16815;51.100;6.516;2023-12-04T12:57:05;12.90;;;9.97;;
29958;SDS011;16815;51.100;6.516;2023-12-04T12:59:32;13.30;;;10.47;;
29958;SDS011;16815;51.100;6.516;2023-12-04T13:01:57;10.47;;;9.37;;
29958;SDS011;16815;51.100;6.516;2023-12-04T13:04:25;17.13;;;9.80;;
29958;SDS011;16815;51.100;6.516;2023-12-04T13:06:51;12.47;;;9.90;;
29958;SDS011;16815;51.100;6.516;2023-12-04T13:09:17;11.90;;;9.43;;
29958;SDS011;16815;51.100;6.516;2023-12-04T13:11:47;12.53;;;10.10;;
29958;SDS011;16815;51.100;6.516;2023-12-04T13:14:14;12.43;;;9.57;;
29958;SDS011;16815;51.100;6.516;2023-12-04T13:16:40;13.77;;;9.67;;
29958;SDS011;16815;51.100;6.516;2023-12-04T13:19:05;15.23;;;10.20;;
29958;SDS011;16815;51.100;6.516;2023-12-04T13:21:31;12.20;;;10.00;;
29958;SDS011;16815;51.100;6.516;2023-12-04T13:23:58;11.70;;;9.70;;
29958;SDS011;16815;51.100;6.516;2023-12-04T13:26:24;18.00;;;9.83;;
29958;SDS011;16815;51.100;6.516;2023-12-04T13:28:50;13.50;;;9.60;;
29958;SDS011;16815;51.100;6.516;2023-12-04T13:31:16;13.53;;;9.90;;
29958;SDS011;16815;51.100;6.516;2023-12-04T13:33:42;13.50;;;9.30;;
29958;SDS011;16815;51.100;6.516;2023-12-04T13:36:11;10.97;;;9.37;;
29958;SDS011;16815;51.100;6.516;2023-12-04T13:38:37;11.00;;;9.43;;
29958;SDS011;16815;51.100;6.516;2023-12-04T13:41:03;10.13;;;8.57;;
29958;SDS011;16815;51.100;6.516;2023-12-04T13:43:47;12.30;;;9.63;;
29958;SDS011;16815;51.100;6.516;2023-12-04T13:46:16;10.63;;;9.00;;
29958;SDS011;16815;51.100;6.516;2023-12-04T13:48:42;11.23;;;9.27;;
29958;SDS011;16815;51.100;6.516;2023-12-04T13:51:09;12.53;;;9.20;;
29958;SDS011;16815;51.100;6.516;2023-12-04T13:53:35;14.07;;;9.80;;
29958;SDS011;16815;51.100;6.516;2023-12-04T13:56:07;12.30;;;9.30;;
29958;SDS011;16815;51.100;6.516;2023-12-04T13:58:46;12.13;;;9.27;;
29958;SDS011;16815;51.100;6.516;2023-12-04T14:01:14;11.03;;;8.30;;
29958;SDS011;16815;51.100;6.516;2023-12-04T14:03:47;12.43;;;9.10;;
29958;SDS011;16815;51.100;6.516;2023-12-04T14:06:13;9.30;;;8.30;;
29958;SDS011;16815;51.100;6.516;2023-12-04T14:08:40;10.43;;;9.03;;
29958;SDS011;16815;51.100;6.516;2023-12-04T14:11:06;10.97;;;8.57;;
29958;SDS011;16815;51.100;6.516;2023-12-04T14:13:32;11.87;;;9.10;;
29958;SDS011;16815;51.100;6.516;2023-12-04T14:15:58;10.67;;;8.90;;
29958;SDS011;16815;51.100;6.516;2023-12-04T14:18:26;10.03;;;7.53;;
29958;SDS011;16815;51.100;6.516;2023-12-04T14:20:52;11.07;;;8.20;;
29958;SDS011;16815;51.100;6.516;2023-12-04T14:23:18;10.77;;;8.30;;